sensor_id;sensor_type;location;lat;lon;timestamp;P1;durP1;ratioP1;P2;durP2;ratioP2
52978;SDS011;63430;53.186;6.598;2023-09-08T00:00:38;373.10;;;354.70;;
52978;SDS011;63430;53.186;6.598;2023-09-08T00:02:43;237.05;;;225.68;;
52978;SDS011;63430;53.186;6.598;2023-09-08T00:04:45;232.57;;;221.15;;
52978;SDS011;63430;53.186;6.598;2023-09-08T00:07:08;347.63;;;330.40;;
52978;SDS011;63430;53.186;6.598;2023-09-08T00:09:11;174.65;;;166.13;;
52978;SDS011;63430;53.186;6.598;2023-09-08T00:11:13;323.65;;;307.27;;
52978;SDS011;63430;53.186;6.598;2023-09-08T00:13:16;305.10;;;290.13;;
52978;SDS011;63430;53.186;6.598;2023-09-08T00:15:18;258.40;;;245.85;;
52978;SDS011;63430;53.186;6.598;2023-09-08T00:17:21;298.48;;;283.73;;
52978;SDS011;63430;53.186;6.598;2023-09-08T00:19:26;241.73;;;229.80;;
52978;SDS011;63430;53.186;6.598;2023-09-08T00:21:29;331.45;;;315.17;;
52978;SDS011;63430;53.186;6.598;2023-09-08T00:23:31;173.25;;;164.75;;
52978;SDS011;63430;53.186;6.598;2023-09-08T00:25:34;193.98;;;184.63;;
52978;SDS011;63430;53.186;6.598;2023-09-08T00:27:37;161.88;;;154.05;;
52978;SDS011;63430;53.186;6.598;2023-09-08T00:29:39;152.00;;;144.55;;
52978;SDS011;63430;53.186;6.598;2023-09-08T00:31:42;115.70;;;109.85;;
52978;SDS011;63430;53.186;6.598;2023-09-08T00:33:44;362.15;;;344.27;;
52978;SDS011;63430;53.186;6.598;2023-09-08T00:35:50;207.68;;;197.30;;
52978;SDS011;63430;53.186;6.598;2023-09-08T00:37:55;254.35;;;241.63;;
52978;SDS011;63430;53.186;6.598;2023-09-08T00:39:57;227.48;;;216.10;;
52978;SDS011;63430;53.186;6.598;2023-09-08T00:42:00;178.05;;;168.77;;
52978;SDS011;63430;53.186;6.598;2023-09-08T00:44:03;339.30;;;322.00;;
52978;SDS011;63430;53.186;6.598;2023-09-08T00:46:07;284.83;;;270.38;;
52978;SDS011;63430;53.186;6.598;2023-09-08T00:48:10;380.02;;;360.90;;
52978;SDS011;63430;53.186;6.598;2023-09-08T00:50:34;313.85;;;297.90;;
52978;SDS011;63430;53.186;6.598;2023-09-08T00:54:43;298.00;;;283.38;;
52978;SDS011;63430;53.186;6.598;2023-09-08T00:56:45;307.33;;;292.17;;
52978;SDS011;63430;53.186;6.598;2023-09-08T00:58:50;182.93;;;173.90;;
52978;SDS011;63430;53.186;6.598;2023-09-08T01:00:52;164.13;;;156.07;;
52978;SDS011;63430;53.186;6.598;2023-09-08T01:02:55;344.08;;;326.67;;
52978;SDS011;63430;53.186;6.598;2023-09-08T01:04:58;265.35;;;251.95;;
52978;SDS011;63430;53.186;6.598;2023-09-08T01:07:04;170.77;;;162.27;;
52978;SDS011;63430;53.186;6.598;2023-09-08T01:09:09;101.95;;;96.85;;
52978;SDS011;63430;53.186;6.598;2023-09-08T01:11:13;248.82;;;236.07;;
52978;SDS011;63430;53.186;6.598;2023-09-08T01:13:16;170.98;;;162.15;;
52978;SDS011;63430;53.186;6.598;2023-09-08T01:15:18;95.05;;;90.05;;
52978;SDS011;63430;53.186;6.598;2023-09-08T01:17:34;356.85;;;337.67;;
52978;SDS011;63430;53.186;6.598;2023-09-08T01:19:37;167.55;;;159.02;;
52978;SDS011;63430;53.186;6.598;2023-09-08T01:22:07;372.60;;;352.83;;
52978;SDS011;63430;53.186;6.598;2023-09-08T01:27:08;165.75;;;157.18;;
52978;SDS011;63430;53.186;6.598;2023-09-08T01:29:13;330.75;;;313.02;;
52978;SDS011;63430;53.186;6.598;2023-09-08T01:31:18;107.68;;;101.88;;
52978;SDS011;63430;53.186;6.598;2023-09-08T01:33:22;266.77;;;252.82;;
52978;SDS011;63430;53.186;6.598;2023-09-08T01:35:25;93.57;;;88.60;;
52978;SDS011;63430;53.186;6.598;2023-09-08T01:37:28;80.15;;;75.68;;
52978;SDS011;63430;53.186;6.598;2023-09-08T01:39:30;106.72;;;101.00;;
52978;SDS011;63430;53.186;6.598;2023-09-08T01:41:35;67.50;;;63.78;;
52978;SDS011;63430;53.186;6.598;2023-09-08T01:43:38;87.20;;;82.45;;
52978;SDS011;63430;53.186;6.598;2023-09-08T01:45:41;293.73;;;278.08;;
52978;SDS011;63430;53.186;6.598;2023-09-08T01:47:44;243.32;;;230.68;;
52978;SDS011;63430;53.186;6.598;2023-09-08T01:49:47;344.88;;;326.25;;
52978;SDS011;63430;53.186;6.598;2023-09-08T01:51:49;91.40;;;86.40;;
52978;SDS011;63430;53.186;6.598;2023-09-08T01:53:52;83.85;;;79.47;;
52978;SDS011;63430;53.186;6.598;2023-09-08T01:56:15;305.08;;;289.17;;
52978;SDS011;63430;53.186;6.598;2023-09-08T01:58:40;128.65;;;121.93;;
52978;SDS011;63430;53.186;6.598;2023-09-08T02:00:42;175.30;;;165.07;;
52978;SDS011;63430;53.186;6.598;2023-09-08T02:02:45;133.30;;;126.63;;
52978;SDS011;63430;53.186;6.598;2023-09-08T02:04:48;86.18;;;81.50;;
52978;SDS011;63430;53.186;6.598;2023-09-08T02:06:53;100.25;;;94.55;;
52978;SDS011;63430;53.186;6.598;2023-09-08T02:08:56;427.77;;;404.80;;
52978;SDS011;63430;53.186;6.598;2023-09-08T02:10:59;290.52;;;275.38;;
52978;SDS011;63430;53.186;6.598;2023-09-08T02:13:22;109.35;;;103.47;;
52978;SDS011;63430;53.186;6.598;2023-09-08T02:15:28;458.07;;;433.60;;
52978;SDS011;63430;53.186;6.598;2023-09-08T02:17:30;439.00;;;415.42;;
52978;SDS011;63430;53.186;6.598;2023-09-08T02:19:33;287.88;;;272.38;;
52978;SDS011;63430;53.186;6.598;2023-09-08T02:21:36;184.48;;;175.00;;
52978;SDS011;63430;53.186;6.598;2023-09-08T02:23:38;281.95;;;266.70;;
52978;SDS011;63430;53.186;6.598;2023-09-08T02:25:41;141.27;;;133.70;;
52978;SDS011;63430;53.186;6.598;2023-09-08T02:27:44;126.78;;;119.97;;
52978;SDS011;63430;53.186;6.598;2023-09-08T02:29:47;192.98;;;182.85;;
52978;SDS011;63430;53.186;6.598;2023-09-08T02:31:52;115.50;;;109.22;;
52978;SDS011;63430;53.186;6.598;2023-09-08T02:33:55;270.48;;;256.33;;
52978;SDS011;63430;53.186;6.598;2023-09-08T02:36:01;91.47;;;86.05;;
52978;SDS011;63430;53.186;6.598;2023-09-08T02:38:24;400.70;;;378.58;;
52978;SDS011;63430;53.186;6.598;2023-09-08T02:40:26;275.83;;;260.23;;
52978;SDS011;63430;53.186;6.598;2023-09-08T02:42:29;457.27;;;431.80;;
52978;SDS011;63430;53.186;6.598;2023-09-08T02:44:32;122.22;;;115.35;;
52978;SDS011;63430;53.186;6.598;2023-09-08T02:46:34;366.58;;;346.92;;
52978;SDS011;63430;53.186;6.598;2023-09-08T02:49:01;127.15;;;120.40;;
52978;SDS011;63430;53.186;6.598;2023-09-08T02:51:04;404.52;;;383.02;;
52978;SDS011;63430;53.186;6.598;2023-09-08T02:53:07;130.35;;;123.18;;
52978;SDS011;63430;53.186;6.598;2023-09-08T02:55:10;220.27;;;208.60;;
52978;SDS011;63430;53.186;6.598;2023-09-08T02:57:13;486.80;;;459.80;;
52978;SDS011;63430;53.186;6.598;2023-09-08T02:59:15;148.68;;;140.68;;
52978;SDS011;63430;53.186;6.598;2023-09-08T03:01:18;162.80;;;154.15;;
52978;SDS011;63430;53.186;6.598;2023-09-08T03:03:22;114.47;;;108.43;;
52978;SDS011;63430;53.186;6.598;2023-09-08T03:05:27;174.38;;;165.27;;
52978;SDS011;63430;53.186;6.598;2023-09-08T03:07:30;161.02;;;152.85;;
52978;SDS011;63430;53.186;6.598;2023-09-08T03:09:35;170.90;;;162.05;;
52978;SDS011;63430;53.186;6.598;2023-09-08T03:11:38;405.48;;;383.58;;
52978;SDS011;63430;53.186;6.598;2023-09-08T03:13:41;228.73;;;216.38;;
52978;SDS011;63430;53.186;6.598;2023-09-08T03:15:44;200.35;;;189.27;;
52978;SDS011;63430;53.186;6.598;2023-09-08T03:17:46;387.98;;;366.75;;
52978;SDS011;63430;53.186;6.598;2023-09-08T03:19:49;185.57;;;175.48;;
52978;SDS011;63430;53.186;6.598;2023-09-08T03:21:54;173.45;;;164.10;;
52978;SDS011;63430;53.186;6.598;2023-09-08T03:24:17;517.13;;;487.50;;
52978;SDS011;63430;53.186;6.598;2023-09-08T03:26:39;203.32;;;192.60;;
52978;SDS011;63430;53.186;6.598;2023-09-08T03:28:42;163.57;;;155.30;;
52978;SDS011;63430;53.186;6.598;2023-09-08T03:30:45;282.92;;;267.48;;
52978;SDS011;63430;53.186;6.598;2023-09-08T03:32:48;149.43;;;141.23;;
52978;SDS011;63430;53.186;6.598;2023-09-08T03:34:50;277.73;;;262.67;;
52978;SDS011;63430;53.186;6.598;2023-09-08T03:36:56;330.60;;;311.65;;
52978;SDS011;63430;53.186;6.598;2023-09-08T03:38:59;251.52;;;237.80;;
52978;SDS011;63430;53.186;6.598;2023-09-08T03:41:01;128.75;;;121.88;;
52978;SDS011;63430;53.186;6.598;2023-09-08T03:43:04;183.27;;;173.68;;
52978;SDS011;63430;53.186;6.598;2023-09-08T03:45:07;233.20;;;220.57;;
52978;SDS011;63430;53.186;6.598;2023-09-08T03:47:10;191.03;;;180.80;;
52978;SDS011;63430;53.186;6.598;2023-09-08T03:49:13;303.92;;;287.30;;
52978;SDS011;63430;53.186;6.598;2023-09-08T03:51:16;446.55;;;420.45;;
52978;SDS011;63430;53.186;6.598;2023-09-08T03:53:21;314.88;;;297.27;;
52978;SDS011;63430;53.186;6.598;2023-09-08T03:55:44;374.80;;;353.42;;
52978;SDS011;63430;53.186;6.598;2023-09-08T03:57:48;190.32;;;180.07;;
52978;SDS011;63430;53.186;6.598;2023-09-08T03:59:51;183.50;;;173.73;;
52978;SDS011;63430;53.186;6.598;2023-09-08T04:01:53;153.27;;;145.45;;
52978;SDS011;63430;53.186;6.598;2023-09-08T04:04:16;609.25;;;572.38;;
52978;SDS011;63430;53.186;6.598;2023-09-08T04:06:22;600.58;;;564.10;;
52978;SDS011;63430;53.186;6.598;2023-09-08T04:08:28;248.65;;;234.50;;
52978;SDS011;63430;53.186;6.598;2023-09-08T04:10:31;211.05;;;199.20;;
52978;SDS011;63430;53.186;6.598;2023-09-08T04:12:34;509.23;;;477.95;;
52978;SDS011;63430;53.186;6.598;2023-09-08T04:14:36;309.60;;;292.33;;
52978;SDS011;63430;53.186;6.598;2023-09-08T04:16:39;211.63;;;199.52;;
52978;SDS011;63430;53.186;6.598;2023-09-08T04:18:41;412.98;;;388.20;;
52978;SDS011;63430;53.186;6.598;2023-09-08T04:21:05;342.17;;;323.50;;
52978;SDS011;63430;53.186;6.598;2023-09-08T04:23:09;597.75;;;561.03;;
52978;SDS011;63430;53.186;6.598;2023-09-08T04:25:15;266.40;;;251.55;;
52978;SDS011;63430;53.186;6.598;2023-09-08T04:27:17;506.55;;;476.52;;
52978;SDS011;63430;53.186;6.598;2023-09-08T04:29:20;533.15;;;500.38;;
52978;SDS011;63430;53.186;6.598;2023-09-08T04:31:22;216.00;;;203.93;;
52978;SDS011;63430;53.186;6.598;2023-09-08T04:33:25;201.00;;;189.48;;
52978;SDS011;63430;53.186;6.598;2023-09-08T04:35:28;504.42;;;474.20;;
52978;SDS011;63430;53.186;6.598;2023-09-08T04:37:51;317.05;;;298.77;;
52978;SDS011;63430;53.186;6.598;2023-09-08T04:39:55;481.23;;;452.95;;
52978;SDS011;63430;53.186;6.598;2023-09-08T04:42:00;451.52;;;425.30;;
52978;SDS011;63430;53.186;6.598;2023-09-08T04:44:03;226.75;;;213.90;;
52978;SDS011;63430;53.186;6.598;2023-09-08T04:46:07;210.32;;;199.65;;
52978;SDS011;63430;53.186;6.598;2023-09-08T04:48:10;134.07;;;127.18;;
52978;SDS011;63430;53.186;6.598;2023-09-08T04:50:14;203.82;;;193.02;;
52978;SDS011;63430;53.186;6.598;2023-09-08T04:52:18;165.05;;;156.80;;
52978;SDS011;63430;53.186;6.598;2023-09-08T04:54:21;138.13;;;130.68;;
52978;SDS011;63430;53.186;6.598;2023-09-08T04:56:24;163.40;;;155.13;;
52978;SDS011;63430;53.186;6.598;2023-09-08T04:58:29;432.23;;;408.90;;
52978;SDS011;63430;53.186;6.598;2023-09-08T05:00:32;468.23;;;441.02;;
52978;SDS011;63430;53.186;6.598;2023-09-08T05:02:36;460.90;;;434.40;;
52978;SDS011;63430;53.186;6.598;2023-09-08T05:04:40;318.15;;;300.33;;
52978;SDS011;63430;53.186;6.598;2023-09-08T05:06:42;148.27;;;140.73;;
52978;SDS011;63430;53.186;6.598;2023-09-08T05:08:46;283.40;;;269.40;;
52978;SDS011;63430;53.186;6.598;2023-09-08T05:10:48;233.82;;;221.52;;
52978;SDS011;63430;53.186;6.598;2023-09-08T05:12:51;215.65;;;204.23;;
52978;SDS011;63430;53.186;6.598;2023-09-08T05:14:57;133.43;;;126.57;;
52978;SDS011;63430;53.186;6.598;2023-09-08T05:17:10;291.30;;;276.85;;
52978;SDS011;63430;53.186;6.598;2023-09-08T05:19:13;390.35;;;370.33;;
52978;SDS011;63430;53.186;6.598;2023-09-08T05:21:16;210.85;;;200.65;;
52978;SDS011;63430;53.186;6.598;2023-09-08T05:23:19;237.38;;;225.30;;
52978;SDS011;63430;53.186;6.598;2023-09-08T05:25:22;184.18;;;174.90;;
52978;SDS011;63430;53.186;6.598;2023-09-08T05:27:24;217.80;;;206.55;;
52978;SDS011;63430;53.186;6.598;2023-09-08T05:29:28;238.98;;;227.40;;
52978;SDS011;63430;53.186;6.598;2023-09-08T05:31:33;123.55;;;117.47;;
52978;SDS011;63430;53.186;6.598;2023-09-08T05:33:36;213.00;;;202.57;;
52978;SDS011;63430;53.186;6.598;2023-09-08T05:35:38;258.33;;;245.57;;
52978;SDS011;63430;53.186;6.598;2023-09-08T05:37:41;189.50;;;180.23;;
52978;SDS011;63430;53.186;6.598;2023-09-08T05:39:43;221.10;;;210.40;;
52978;SDS011;63430;53.186;6.598;2023-09-08T05:41:49;261.30;;;248.65;;
52978;SDS011;63430;53.186;6.598;2023-09-08T05:43:52;125.15;;;119.10;;
52978;SDS011;63430;53.186;6.598;2023-09-08T05:45:56;140.53;;;133.80;;
52978;SDS011;63430;53.186;6.598;2023-09-08T05:48:01;202.73;;;192.82;;
52978;SDS011;63430;53.186;6.598;2023-09-08T05:50:05;170.50;;;162.60;;
52978;SDS011;63430;53.186;6.598;2023-09-08T05:52:09;184.48;;;175.55;;
52978;SDS011;63430;53.186;6.598;2023-09-08T05:54:12;247.98;;;235.15;;
52978;SDS011;63430;53.186;6.598;2023-09-08T05:56:15;260.98;;;248.38;;
52978;SDS011;63430;53.186;6.598;2023-09-08T05:58:20;223.20;;;212.70;;
52978;SDS011;63430;53.186;6.598;2023-09-08T06:00:22;150.80;;;143.40;;
52978;SDS011;63430;53.186;6.598;2023-09-08T06:04:31;220.02;;;209.10;;
52978;SDS011;63430;53.186;6.598;2023-09-08T06:06:35;238.30;;;226.48;;
52978;SDS011;63430;53.186;6.598;2023-09-08T06:08:38;328.40;;;311.67;;
52978;SDS011;63430;53.186;6.598;2023-09-08T06:10:41;264.85;;;251.48;;
52978;SDS011;63430;53.186;6.598;2023-09-08T06:12:44;284.67;;;270.30;;
52978;SDS011;63430;53.186;6.598;2023-09-08T06:15:07;250.10;;;237.68;;
52978;SDS011;63430;53.186;6.598;2023-09-08T06:17:10;334.80;;;318.00;;
52978;SDS011;63430;53.186;6.598;2023-09-08T06:19:13;353.85;;;335.60;;
52978;SDS011;63430;53.186;6.598;2023-09-08T06:21:18;229.20;;;217.68;;
52978;SDS011;63430;53.186;6.598;2023-09-08T06:23:21;380.27;;;360.45;;
52978;SDS011;63430;53.186;6.598;2023-09-08T06:27:28;227.18;;;215.63;;
52978;SDS011;63430;53.186;6.598;2023-09-08T06:29:32;222.23;;;211.30;;
52978;SDS011;63430;53.186;6.598;2023-09-08T06:31:35;251.88;;;239.20;;
52978;SDS011;63430;53.186;6.598;2023-09-08T06:33:38;363.77;;;345.25;;
52978;SDS011;63430;53.186;6.598;2023-09-08T06:35:40;441.60;;;419.10;;
52978;SDS011;63430;53.186;6.598;2023-09-08T06:37:46;407.77;;;386.95;;
52978;SDS011;63430;53.186;6.598;2023-09-08T06:39:48;368.65;;;350.20;;
52978;SDS011;63430;53.186;6.598;2023-09-08T06:41:52;388.98;;;369.92;;
52978;SDS011;63430;53.186;6.598;2023-09-08T06:43:56;385.45;;;366.58;;
52978;SDS011;63430;53.186;6.598;2023-09-08T06:46:22;218.13;;;207.85;;
52978;SDS011;63430;53.186;6.598;2023-09-08T06:48:25;323.60;;;307.77;;
52978;SDS011;63430;53.186;6.598;2023-09-08T06:50:28;247.05;;;235.60;;
52978;SDS011;63430;53.186;6.598;2023-09-08T06:52:32;280.13;;;266.58;;
52978;SDS011;63430;53.186;6.598;2023-09-08T06:54:37;130.30;;;124.32;;
52978;SDS011;63430;53.186;6.598;2023-09-08T06:56:40;193.68;;;184.48;;
52978;SDS011;63430;53.186;6.598;2023-09-08T06:58:43;232.68;;;221.77;;
52978;SDS011;63430;53.186;6.598;2023-09-08T07:00:45;152.18;;;144.82;;
52978;SDS011;63430;53.186;6.598;2023-09-08T07:03:08;158.23;;;150.50;;
52978;SDS011;63430;53.186;6.598;2023-09-08T07:05:11;233.95;;;222.98;;
52978;SDS011;63430;53.186;6.598;2023-09-08T07:07:34;131.23;;;125.03;;
52978;SDS011;63430;53.186;6.598;2023-09-08T07:09:40;172.55;;;164.63;;
52978;SDS011;63430;53.186;6.598;2023-09-08T07:11:43;111.15;;;105.70;;
52978;SDS011;63430;53.186;6.598;2023-09-08T07:13:46;109.05;;;103.60;;
52978;SDS011;63430;53.186;6.598;2023-09-08T07:15:49;92.20;;;87.50;;
52978;SDS011;63430;53.186;6.598;2023-09-08T07:17:52;89.05;;;84.60;;
52978;SDS011;63430;53.186;6.598;2023-09-08T07:19:55;94.43;;;89.35;;
52978;SDS011;63430;53.186;6.598;2023-09-08T07:21:58;92.38;;;87.78;;
52978;SDS011;63430;53.186;6.598;2023-09-08T07:24:01;105.28;;;100.13;;
52978;SDS011;63430;53.186;6.598;2023-09-08T07:26:06;81.30;;;77.00;;
52978;SDS011;63430;53.186;6.598;2023-09-08T07:28:09;70.30;;;66.47;;
52978;SDS011;63430;53.186;6.598;2023-09-08T07:30:12;74.95;;;70.97;;
52978;SDS011;63430;53.186;6.598;2023-09-08T07:32:15;79.13;;;74.90;;
52978;SDS011;63430;53.186;6.598;2023-09-08T07:34:18;66.30;;;62.85;;
52978;SDS011;63430;53.186;6.598;2023-09-08T07:36:20;59.35;;;56.13;;
52978;SDS011;63430;53.186;6.598;2023-09-08T07:38:23;64.65;;;61.13;;
52978;SDS011;63430;53.186;6.598;2023-09-08T07:40:25;53.55;;;50.55;;
52978;SDS011;63430;53.186;6.598;2023-09-08T07:42:31;49.97;;;47.20;;
52978;SDS011;63430;53.186;6.598;2023-09-08T07:44:33;45.55;;;42.97;;
52978;SDS011;63430;53.186;6.598;2023-09-08T07:46:36;44.85;;;42.33;;
52978;SDS011;63430;53.186;6.598;2023-09-08T07:48:58;58.70;;;55.53;;
52978;SDS011;63430;53.186;6.598;2023-09-08T07:51:05;74.95;;;70.80;;
52978;SDS011;63430;53.186;6.598;2023-09-08T07:53:09;75.13;;;71.30;;
52978;SDS011;63430;53.186;6.598;2023-09-08T07:55:11;103.97;;;98.88;;
52978;SDS011;63430;53.186;6.598;2023-09-08T07:57:14;147.30;;;140.68;;
52978;SDS011;63430;53.186;6.598;2023-09-08T07:59:19;138.45;;;131.77;;
52978;SDS011;63430;53.186;6.598;2023-09-08T08:01:22;226.43;;;216.07;;
52978;SDS011;63430;53.186;6.598;2023-09-08T08:03:24;311.52;;;296.55;;
52978;SDS011;63430;53.186;6.598;2023-09-08T08:05:27;342.88;;;325.80;;
52978;SDS011;63430;53.186;6.598;2023-09-08T08:07:29;440.38;;;417.38;;
52978;SDS011;63430;53.186;6.598;2023-09-08T08:09:32;263.90;;;251.05;;
52978;SDS011;63430;53.186;6.598;2023-09-08T08:11:54;216.95;;;206.38;;
52978;SDS011;63430;53.186;6.598;2023-09-08T08:13:57;225.07;;;213.48;;
52978;SDS011;63430;53.186;6.598;2023-09-08T08:16:02;307.00;;;290.98;;
52978;SDS011;63430;53.186;6.598;2023-09-08T08:18:05;139.85;;;132.90;;
52978;SDS011;63430;53.186;6.598;2023-09-08T08:20:10;391.52;;;369.33;;
52978;SDS011;63430;53.186;6.598;2023-09-08T08:22:19;312.70;;;296.60;;
52978;SDS011;63430;53.186;6.598;2023-09-08T08:24:42;406.30;;;383.98;;
52978;SDS011;63430;53.186;6.598;2023-09-08T08:26:45;303.75;;;287.50;;
52978;SDS011;63430;53.186;6.598;2023-09-08T08:28:47;352.15;;;333.13;;
52978;SDS011;63430;53.186;6.598;2023-09-08T08:30:50;265.95;;;252.43;;
52978;SDS011;63430;53.186;6.598;2023-09-08T08:32:56;586.42;;;550.67;;
52978;SDS011;63430;53.186;6.598;2023-09-08T08:34:59;207.05;;;196.02;;
52978;SDS011;63430;53.186;6.598;2023-09-08T08:37:01;230.25;;;218.45;;
52978;SDS011;63430;53.186;6.598;2023-09-08T08:39:04;306.63;;;289.70;;
52978;SDS011;63430;53.186;6.598;2023-09-08T08:41:28;68.25;;;64.97;;
52978;SDS011;63430;53.186;6.598;2023-09-08T08:43:31;479.42;;;451.40;;
52978;SDS011;63430;53.186;6.598;2023-09-08T08:45:34;547.13;;;513.83;;
52978;SDS011;63430;53.186;6.598;2023-09-08T08:47:39;503.13;;;473.33;;
52978;SDS011;63430;53.186;6.598;2023-09-08T08:49:45;128.70;;;122.47;;
52978;SDS011;63430;53.186;6.598;2023-09-08T08:51:50;97.80;;;93.05;;
52978;SDS011;63430;53.186;6.598;2023-09-08T08:53:55;374.48;;;353.23;;
52978;SDS011;63430;53.186;6.598;2023-09-08T08:55:58;98.88;;;94.25;;
52978;SDS011;63430;53.186;6.598;2023-09-08T08:58:02;85.03;;;81.20;;
52978;SDS011;63430;53.186;6.598;2023-09-08T09:00:26;100.57;;;96.00;;
52978;SDS011;63430;53.186;6.598;2023-09-08T09:02:28;86.60;;;82.57;;
52978;SDS011;63430;53.186;6.598;2023-09-08T09:04:31;96.43;;;92.10;;
52978;SDS011;63430;53.186;6.598;2023-09-08T09:06:37;101.75;;;97.15;;
52978;SDS011;63430;53.186;6.598;2023-09-08T09:08:40;89.63;;;85.43;;
52978;SDS011;63430;53.186;6.598;2023-09-08T09:10:44;133.98;;;127.60;;
52978;SDS011;63430;53.186;6.598;2023-09-08T09:12:47;93.82;;;89.53;;
52978;SDS011;63430;53.186;6.598;2023-09-08T09:14:52;99.95;;;95.28;;
52978;SDS011;63430;53.186;6.598;2023-09-08T09:16:56;113.85;;;108.70;;
52978;SDS011;63430;53.186;6.598;2023-09-08T09:18:59;127.20;;;121.45;;
52978;SDS011;63430;53.186;6.598;2023-09-08T09:21:02;176.23;;;167.95;;
52978;SDS011;63430;53.186;6.598;2023-09-08T09:23:07;130.93;;;124.88;;
52978;SDS011;63430;53.186;6.598;2023-09-08T09:25:32;133.18;;;127.28;;
52978;SDS011;63430;53.186;6.598;2023-09-08T09:27:35;248.97;;;236.43;;
52978;SDS011;63430;53.186;6.598;2023-09-08T09:29:43;252.57;;;239.73;;
52978;SDS011;63430;53.186;6.598;2023-09-08T09:32:08;150.52;;;143.82;;
52978;SDS011;63430;53.186;6.598;2023-09-08T09:34:10;133.75;;;127.82;;
52978;SDS011;63430;53.186;6.598;2023-09-08T09:36:19;140.85;;;134.68;;
52978;SDS011;63430;53.186;6.598;2023-09-08T09:38:26;147.43;;;140.85;;
52978;SDS011;63430;53.186;6.598;2023-09-08T09:40:29;147.80;;;140.88;;
52978;SDS011;63430;53.186;6.598;2023-09-08T09:42:33;148.82;;;142.20;;
52978;SDS011;63430;53.186;6.598;2023-09-08T09:44:36;174.85;;;166.98;;
52978;SDS011;63430;53.186;6.598;2023-09-08T09:46:59;136.65;;;130.30;;
52978;SDS011;63430;53.186;6.598;2023-09-08T09:49:03;136.60;;;130.40;;
52978;SDS011;63430;53.186;6.598;2023-09-08T09:51:18;139.57;;;133.38;;
52978;SDS011;63430;53.186;6.598;2023-09-08T09:53:21;145.52;;;138.98;;
52978;SDS011;63430;53.186;6.598;2023-09-08T09:55:28;138.77;;;132.48;;
52978;SDS011;63430;53.186;6.598;2023-09-08T09:57:30;141.80;;;135.48;;
52978;SDS011;63430;53.186;6.598;2023-09-08T09:59:34;142.50;;;135.60;;
52978;SDS011;63430;53.186;6.598;2023-09-08T10:01:37;148.83;;;142.27;;
52978;SDS011;63430;53.186;6.598;2023-09-08T10:03:41;143.65;;;137.10;;
52978;SDS011;63430;53.186;6.598;2023-09-08T10:05:45;150.50;;;143.65;;
52978;SDS011;63430;53.186;6.598;2023-09-08T10:07:50;163.13;;;155.95;;
52978;SDS011;63430;53.186;6.598;2023-09-08T10:09:56;129.70;;;124.03;;
52978;SDS011;63430;53.186;6.598;2023-09-08T10:11:59;123.32;;;117.70;;
52978;SDS011;63430;53.186;6.598;2023-09-08T10:14:26;108.00;;;103.03;;
52978;SDS011;63430;53.186;6.598;2023-09-08T10:16:33;108.93;;;104.13;;
52978;SDS011;63430;53.186;6.598;2023-09-08T10:18:36;114.25;;;109.10;;
52978;SDS011;63430;53.186;6.598;2023-09-08T10:20:41;140.20;;;133.90;;
52978;SDS011;63430;53.186;6.598;2023-09-08T10:24:47;114.32;;;109.20;;
52978;SDS011;63430;53.186;6.598;2023-09-08T10:27:04;219.35;;;209.18;;
52978;SDS011;63430;53.186;6.598;2023-09-08T10:29:10;359.35;;;340.77;;
52978;SDS011;63430;53.186;6.598;2023-09-08T10:31:14;119.82;;;114.40;;
52978;SDS011;63430;53.186;6.598;2023-09-08T10:33:17;134.30;;;128.05;;
52978;SDS011;63430;53.186;6.598;2023-09-08T10:35:21;143.68;;;137.25;;
52978;SDS011;63430;53.186;6.598;2023-09-08T10:37:24;99.97;;;95.47;;
52978;SDS011;63430;53.186;6.598;2023-09-08T10:39:30;107.35;;;102.55;;
52978;SDS011;63430;53.186;6.598;2023-09-08T10:41:33;105.32;;;100.55;;
52978;SDS011;63430;53.186;6.598;2023-09-08T10:43:39;230.30;;;219.40;;
52978;SDS011;63430;53.186;6.598;2023-09-08T10:45:43;259.95;;;247.10;;
52978;SDS011;63430;53.186;6.598;2023-09-08T10:47:56;225.38;;;214.85;;
52978;SDS011;63430;53.186;6.598;2023-09-08T10:49:59;91.60;;;87.22;;
52978;SDS011;63430;53.186;6.598;2023-09-08T10:52:05;334.20;;;317.20;;
52978;SDS011;63430;53.186;6.598;2023-09-08T10:54:10;319.58;;;303.45;;
52978;SDS011;63430;53.186;6.598;2023-09-08T10:56:14;382.90;;;363.08;;
52978;SDS011;63430;53.186;6.598;2023-09-08T10:58:19;272.23;;;258.83;;
52978;SDS011;63430;53.186;6.598;2023-09-08T11:00:25;1591.82;;;836.10;;
52978;SDS011;63430;53.186;6.598;2023-09-08T11:02:34;402.58;;;381.67;;
52978;SDS011;63430;53.186;6.598;2023-09-08T11:04:38;1641.25;;;883.05;;
52978;SDS011;63430;53.186;6.598;2023-09-08T11:06:43;196.43;;;187.25;;
52978;SDS011;63430;53.186;6.598;2023-09-08T11:08:46;161.00;;;153.50;;
52978;SDS011;63430;53.186;6.598;2023-09-08T11:10:49;307.67;;;292.70;;
52978;SDS011;63430;53.186;6.598;2023-09-08T11:12:53;195.73;;;186.07;;
52978;SDS011;63430;53.186;6.598;2023-09-08T11:17:23;365.67;;;346.33;;
52978;SDS011;63430;53.186;6.598;2023-09-08T11:19:42;107.25;;;102.38;;
52978;SDS011;63430;53.186;6.598;2023-09-08T11:21:45;343.35;;;325.55;;
52978;SDS011;63430;53.186;6.598;2023-09-08T11:23:49;200.05;;;190.65;;
52978;SDS011;63430;53.186;6.598;2023-09-08T11:25:52;115.10;;;109.80;;
52978;SDS011;63430;53.186;6.598;2023-09-08T11:27:55;1999.90;;;999.90;;
52978;SDS011;63430;53.186;6.598;2023-09-08T11:32:01;1608.80;;;852.53;;
52978;SDS011;63430;53.186;6.598;2023-09-08T11:34:08;341.98;;;324.35;;
52978;SDS011;63430;53.186;6.598;2023-09-08T11:36:15;1999.90;;;999.90;;
52978;SDS011;63430;53.186;6.598;2023-09-08T11:38:19;1999.90;;;999.90;;
52978;SDS011;63430;53.186;6.598;2023-09-08T11:40:26;1999.90;;;999.90;;
52978;SDS011;63430;53.186;6.598;2023-09-08T11:42:29;487.95;;;460.33;;
52978;SDS011;63430;53.186;6.598;2023-09-08T11:44:31;251.27;;;238.85;;
52978;SDS011;63430;53.186;6.598;2023-09-08T11:46:34;826.28;;;557.78;;
52978;SDS011;63430;53.186;6.598;2023-09-08T11:48:37;1999.90;;;999.90;;
52978;SDS011;63430;53.186;6.598;2023-09-08T11:50:43;373.47;;;353.07;;
52978;SDS011;63430;53.186;6.598;2023-09-08T11:52:47;1999.90;;;999.90;;
52978;SDS011;63430;53.186;6.598;2023-09-08T11:54:50;1999.90;;;999.90;;
52978;SDS011;63430;53.186;6.598;2023-09-08T11:57:08;1999.90;;;999.90;;
52978;SDS011;63430;53.186;6.598;2023-09-08T11:59:13;1999.90;;;999.90;;
52978;SDS011;63430;53.186;6.598;2023-09-08T12:01:37;1999.90;;;999.90;;
52978;SDS011;63430;53.186;6.598;2023-09-08T12:03:50;1999.90;;;999.90;;
52978;SDS011;63430;53.186;6.598;2023-09-08T12:05:56;1109.45;;;602.83;;
52978;SDS011;63430;53.186;6.598;2023-09-08T12:08:19;1999.90;;;999.90;;
52978;SDS011;63430;53.186;6.598;2023-09-08T12:10:22;1999.90;;;999.90;;